Time;durP1;ratioP1;P1;durP2;ratioP2;P2;SDS_P1;SDS_P2;PMS_P1;PMS_P2;Temp;Humidity;BMP_temperature;BMP_pressure;BME280_temperature;BME280_humidity;BME280_pressure;Samples;Min_cycle;Max_cycle;Signal;HPM_P1;HPM_P2
2021/08/07 00:00:48;;;;;;;3.83;2.10;;;;;;;;;;5115303;27;20023;-73
2021/08/07 00:03:14;;;;;;;4.60;2.30;;;;;;;;;;5127953;27;20027;-73
2021/08/07 00:05:40;;;;;;;6.80;2.30;;;;;;;;;;5130003;27;20095;-73
2021/08/07 00:08:06;;;;;;;5.93;2.40;;;;;;;;;;5126573;27;20073;-73
2021/08/07 00:10:31;;;;;;;6.53;2.50;;;;;;;;;;5116711;27;20127;-74
2021/08/07 00:12:57;;;;;;;7.65;2.47;;;;;;;;;;5124506;27;20503;-73
2021/08/07 00:15:23;;;;;;;5.50;2.40;;;;;;;;;;5124149;27;20024;-74
2021/08/07 00:17:48;;;;;;;6.22;2.80;;;;;;;;;;5111970;28;20382;-74
2021/08/07 00:20:14;;;;;;;3.92;2.58;;;;;;;;;;5115943;27;20035;-74
2021/08/07 00:22:39;;;;;;;5.75;2.50;;;;;;;;;;5113674;27;20514;-74
2021/08/07 00:25:06;;;;;;;6.22;2.45;;;;;;;;;;5111272;27;20031;-74
2021/08/07 00:27:31;;;;;;;4.15;2.30;;;;;;;;;;5116174;27;20080;-73
2021/08/07 00:29:57;;;;;;;4.40;2.65;;;;;;;;;;5113333;27;20023;-73
2021/08/07 00:32:23;;;;;;;4.57;2.85;;;;;;;;;;5126793;27;20025;-73
2021/08/07 00:34:48;;;;;;;7.45;2.60;;;;;;;;;;5125743;27;20027;-74
2021/08/07 00:37:14;;;;;;;6.47;2.83;;;;;;;;;;5130418;27;20058;-73
2021/08/07 00:39:39;;;;;;;6.28;2.95;;;;;;;;;;5112774;27;20441;-73
2021/08/07 00:42:05;;;;;;;6.00;2.50;;;;;;;;;;5132085;27;20071;-74
2021/08/07 00:44:30;;;;;;;7.28;3.20;;;;;;;;;;5122202;27;20024;-74
2021/08/07 00:46:56;;;;;;;4.55;2.97;;;;;;;;;;5125890;27;20562;-73
2021/08/07 00:49:23;;;;;;;5.15;2.72;;;;;;;;;;5130855;27;20818;-74
2021/08/07 00:51:49;;;;;;;7.20;2.70;;;;;;;;;;5115685;27;20023;-74
2021/08/07 00:54:15;;;;;;;6.10;2.72;;;;;;;;;;5111319;28;20031;-74
2021/08/07 00:56:40;;;;;;;7.38;3.20;;;;;;;;;;5124471;27;20038;-73
2021/08/07 00:59:06;;;;;;;5.05;2.75;;;;;;;;;;5130091;27;20030;-74
2021/08/07 01:02:04;;;;;;;5.03;2.65;;;;;;;;;;5124020;27;20246;-73
2021/08/07 01:04:38;;;;;;;6.40;2.78;;;;;;;;;;5121774;28;20116;-74
2021/08/07 01:07:24;;;;;;;7.03;2.90;;;;;;;;;;5129535;27;20106;-73
2021/08/07 01:10:19;;;;;;;5.85;2.80;;;;;;;;;;5124490;28;20038;-74
2021/08/07 01:13:10;;;;;;;6.88;2.75;;;;;;;;;;5097943;28;20066;-73
2021/08/07 01:15:41;;;;;;;5.15;2.85;;;;;;;;;;5115488;28;20494;-74
2021/08/07 01:18:10;;;;;;;7.43;2.97;;;;;;;;;;5131658;28;20023;-73
2021/08/07 01:20:39;;;;;;;4.95;3.35;;;;;;;;;;5127935;28;20036;-74
2021/08/07 01:23:18;;;;;;;5.68;3.25;;;;;;;;;;5123105;28;20106;-74
2021/08/07 01:26:12;;;;;;;5.90;2.85;;;;;;;;;;5124256;28;20043;-74
2021/08/07 01:28:40;;;;;;;5.53;2.80;;;;;;;;;;5131356;28;20031;-74
2021/08/07 01:31:09;;;;;;;5.63;3.00;;;;;;;;;;5127493;28;20058;-74
2021/08/07 01:33:35;;;;;;;8.95;3.15;;;;;;;;;;5130998;28;20092;-74
2021/08/07 01:36:03;;;;;;;6.78;2.90;;;;;;;;;;5130239;27;20038;-74
2021/08/07 01:38:29;;;;;;;5.30;2.63;;;;;;;;;;5134436;27;20535;-74
2021/08/07 01:40:54;;;;;;;5.55;3.13;;;;;;;;;;5134006;27;20476;-74
2021/08/07 01:43:20;;;;;;;3.88;2.72;;;;;;;;;;5116747;27;20102;-74
2021/08/07 01:45:46;;;;;;;5.22;3.00;;;;;;;;;;5125119;27;20091;-73
2021/08/07 01:48:28;;;;;;;3.97;2.88;;;;;;;;;;5134959;27;20032;-74
2021/08/07 01:51:07;;;;;;;7.20;2.92;;;;;;;;;;5126332;27;20031;-73
2021/08/07 01:53:34;;;;;;;6.28;3.40;;;;;;;;;;5123715;27;20024;-73
2021/08/07 01:56:12;;;;;;;7.15;3.15;;;;;;;;;;5122263;27;20510;-73
2021/08/07 01:59:05;;;;;;;6.80;3.30;;;;;;;;;;5124570;27;20046;-73
2021/08/07 02:01:31;;;;;;;7.28;2.83;;;;;;;;;;5129635;27;20130;-73
2021/08/07 02:03:59;;;;;;;5.28;2.83;;;;;;;;;;5113100;28;20031;-73
2021/08/07 02:06:26;;;;;;;9.95;3.47;;;;;;;;;;5118306;27;20023;-73
2021/08/07 02:08:51;;;;;;;5.05;2.90;;;;;;;;;;5134700;27;20611;-73
2021/08/07 02:11:18;;;;;;;4.72;2.60;;;;;;;;;;5132094;27;20105;-73
2021/08/07 02:13:45;;;;;;;7.88;3.05;;;;;;;;;;5124936;27;20112;-74
2021/08/07 02:16:12;;;;;;;3.70;2.80;;;;;;;;;;5118490;27;20520;-74
2021/08/07 02:18:40;;;;;;;12.38;7.55;;;;;;;;;;5129306;27;20043;-74
2021/08/07 02:21:06;;;;;;;6.40;3.30;;;;;;;;;;5113621;28;20031;-74
2021/08/07 02:23:32;;;;;;;7.32;3.22;;;;;;;;;;5123997;27;20077;-74
2021/08/07 02:26:00;;;;;;;5.15;2.97;;;;;;;;;;5119461;27;20039;-74
2021/08/07 02:28:27;;;;;;;4.95;3.20;;;;;;;;;;5115796;27;20573;-75
2021/08/07 02:30:53;;;;;;;6.43;3.10;;;;;;;;;;5114036;27;20479;-73
2021/08/07 02:33:22;;;;;;;6.13;3.20;;;;;;;;;;5116791;27;20073;-74
2021/08/07 02:35:49;;;;;;;6.18;3.20;;;;;;;;;;5134602;27;20023;-74
2021/08/07 02:38:16;;;;;;;7.32;3.33;;;;;;;;;;5134419;27;20025;-74
2021/08/07 02:40:42;;;;;;;8.13;3.58;;;;;;;;;;5134033;27;20027;-73
2021/08/07 02:43:08;;;;;;;5.25;3.30;;;;;;;;;;5131848;27;20509;-74
2021/08/07 02:45:35;;;;;;;9.50;3.40;;;;;;;;;;5115047;28;20020;-73
2021/08/07 02:48:00;;;;;;;5.18;3.05;;;;;;;;;;5114227;28;20124;-73
2021/08/07 02:50:27;;;;;;;6.82;3.30;;;;;;;;;;5115573;27;20497;-74
2021/08/07 02:52:54;;;;;;;6.35;2.80;;;;;;;;;;5116265;27;20030;-73
2021/08/07 02:55:22;;;;;;;5.75;3.13;;;;;;;;;;5132326;27;20106;-74
2021/08/07 02:57:51;;;;;;;7.88;3.13;;;;;;;;;;5133513;27;20106;-74
2021/08/07 03:00:18;;;;;;;7.15;3.30;;;;;;;;;;5133832;27;20026;-74
2021/08/07 03:02:43;;;;;;;11.40;3.30;;;;;;;;;;5133385;27;20019;-74
2021/08/07 03:05:10;;;;;;;5.93;3.30;;;;;;;;;;5129613;27;20111;-74
2021/08/07 03:07:36;;;;;;;6.35;3.20;;;;;;;;;;5113106;28;20054;-74
2021/08/07 03:10:05;;;;;;;3.92;3.05;;;;;;;;;;5113378;28;20464;-74
2021/08/07 03:12:30;;;;;;;7.38;3.22;;;;;;;;;;5117488;27;20550;-74
2021/08/07 03:14:56;;;;;;;6.00;3.45;;;;;;;;;;5123004;27;20119;-74
2021/08/07 03:17:22;;;;;;;6.50;3.10;;;;;;;;;;5121253;27;20023;-74
2021/08/07 03:19:47;;;;;;;5.65;3.33;;;;;;;;;;5112899;28;20023;-74
2021/08/07 03:22:13;;;;;;;4.47;3.30;;;;;;;;;;5119469;27;20026;-74
2021/08/07 03:24:38;;;;;;;6.18;3.47;;;;;;;;;;5126462;27;20087;-74
2021/08/07 03:27:04;;;;;;;6.70;3.10;;;;;;;;;;5130860;27;20023;-73
2021/08/07 03:29:30;;;;;;;5.35;2.97;;;;;;;;;;5132976;27;20058;-74
2021/08/07 03:31:55;;;;;;;5.03;3.10;;;;;;;;;;5125111;27;20020;-74
2021/08/07 03:34:21;;;;;;;5.43;3.10;;;;;;;;;;5112736;28;20046;-74
2021/08/07 03:36:46;;;;;;;5.45;3.20;;;;;;;;;;5129105;27;20027;-74
2021/08/07 03:39:11;;;;;;;4.88;2.92;;;;;;;;;;5133387;27;20140;-74
2021/08/07 03:41:37;;;;;;;5.57;3.80;;;;;;;;;;5111000;28;20467;-74
2021/08/07 03:44:03;;;;;;;7.10;3.30;;;;;;;;;;5112683;28;20527;-74
2021/08/07 03:46:28;;;;;;;6.15;3.22;;;;;;;;;;5120786;27;20049;-75
2021/08/07 03:48:54;;;;;;;5.43;3.13;;;;;;;;;;5132988;27;20399;-76
2021/08/07 03:51:19;;;;;;;8.98;3.65;;;;;;;;;;5132400;27;20034;-77
2021/08/07 03:53:46;;;;;;;5.95;3.42;;;;;;;;;;5133754;27;20034;-78
2021/08/07 03:56:11;;;;;;;5.43;3.65;;;;;;;;;;5121649;27;20015;-79
2021/08/07 03:58:36;;;;;;;4.75;3.25;;;;;;;;;;5111884;28;20518;-78
2021/08/07 04:01:02;;;;;;;6.65;3.60;;;;;;;;;;5115227;28;20024;-78
2021/08/07 04:03:27;;;;;;;5.97;4.15;;;;;;;;;;5116058;28;20486;-79
2021/08/07 04:05:53;;;;;;;7.72;4.05;;;;;;;;;;5122950;27;20152;-79
2021/08/07 04:08:18;;;;;;;6.78;3.90;;;;;;;;;;5133928;27;20084;-78
2021/08/07 04:10:43;;;;;;;5.30;3.85;;;;;;;;;;5132575;27;20488;-78
2021/08/07 04:13:09;;;;;;;7.90;3.80;;;;;;;;;;5132246;27;20023;-78
2021/08/07 04:15:35;;;;;;;5.53;3.80;;;;;;;;;;5128986;27;20037;-78
2021/08/07 04:18:00;;;;;;;6.03;3.90;;;;;;;;;;5114569;27;20102;-78
2021/08/07 04:20:26;;;;;;;7.13;3.88;;;;;;;;;;5132865;27;20084;-78
2021/08/07 04:22:52;;;;;;;6.43;3.92;;;;;;;;;;5124523;27;20023;-72
2021/08/07 04:25:17;;;;;;;6.50;3.83;;;;;;;;;;5114567;27;20022;-73
2021/08/07 04:27:43;;;;;;;7.35;4.80;;;;;;;;;;5111927;28;20092;-72
2021/08/07 04:30:09;;;;;;;9.10;4.07;;;;;;;;;;5111844;28;20107;-73
2021/08/07 04:32:35;;;;;;;5.78;4.05;;;;;;;;;;5120537;27;20027;-74
2021/08/07 04:35:00;;;;;;;6.15;4.13;;;;;;;;;;5131059;27;20034;-74
2021/08/07 04:37:26;;;;;;;7.07;4.30;;;;;;;;;;5111918;28;20123;-74
2021/08/07 04:39:52;;;;;;;6.43;4.45;;;;;;;;;;5115863;27;20537;-75
2021/08/07 04:42:17;;;;;;;9.57;4.03;;;;;;;;;;5110098;28;20049;-75
2021/08/07 04:44:43;;;;;;;6.72;3.78;;;;;;;;;;5112557;27;20019;-74
2021/08/07 04:47:08;;;;;;;5.47;4.22;;;;;;;;;;5117918;27;20054;-74
2021/08/07 04:49:34;;;;;;;6.28;4.30;;;;;;;;;;5095759;28;20067;-74
2021/08/07 04:52:00;;;;;;;6.38;3.72;;;;;;;;;;5090845;28;20019;-73
2021/08/07 04:54:26;;;;;;;6.05;4.00;;;;;;;;;;5090617;28;20287;-74
2021/08/07 04:56:51;;;;;;;154.38;13.25;;;;;;;;;;5090839;28;20020;-74
2021/08/07 04:59:17;;;;;;;7.40;3.75;;;;;;;;;;5090794;28;20031;-73
2021/08/07 05:01:43;;;;;;;5.18;3.60;;;;;;;;;;5088860;28;20020;-74
2021/08/07 05:04:10;;;;;;;7.80;3.70;;;;;;;;;;5090793;28;20058;-74
2021/08/07 05:06:36;;;;;;;5.85;3.10;;;;;;;;;;5090764;28;20028;-74
2021/08/07 05:09:02;;;;;;;6.00;3.30;;;;;;;;;;5090034;28;20541;-72
2021/08/07 05:11:27;;;;;;;5.90;3.30;;;;;;;;;;5090485;28;20510;-72
2021/08/07 05:13:53;;;;;;;5.50;3.58;;;;;;;;;;5090255;28;20027;-71
2021/08/07 05:16:18;;;;;;;6.97;3.40;;;;;;;;;;5090623;28;20024;-71
2021/08/07 05:18:44;;;;;;;4.35;3.50;;;;;;;;;;5090575;28;20020;-72
2021/08/07 05:21:09;;;;;;;7.10;3.83;;;;;;;;;;5090487;28;20418;-72
2021/08/07 05:23:34;;;;;;;6.07;3.90;;;;;;;;;;5089954;28;20035;-73
2021/08/07 05:26:00;;;;;;;8.45;4.10;;;;;;;;;;5090403;28;20539;-74
2021/08/07 05:28:25;;;;;;;7.82;3.83;;;;;;;;;;5090552;28;20031;-74
2021/08/07 05:30:51;;;;;;;9.60;4.10;;;;;;;;;;5090320;28;20061;-74
2021/08/07 05:33:16;;;;;;;7.00;4.50;;;;;;;;;;5090893;28;20028;-74
2021/08/07 05:35:42;;;;;;;11.13;4.95;;;;;;;;;;5090318;28;20032;-73
2021/08/07 05:38:08;;;;;;;7.05;4.45;;;;;;;;;;5090271;28;20364;-72
2021/08/07 05:40:33;;;;;;;7.07;4.93;;;;;;;;;;5090049;28;20146;-71
2021/08/07 05:42:59;;;;;;;5.57;4.40;;;;;;;;;;5090593;28;20531;-71
2021/08/07 05:45:24;;;;;;;6.65;5.45;;;;;;;;;;5090550;28;20020;-72
2021/08/07 05:47:49;;;;;;;6.75;4.10;;;;;;;;;;5090754;28;20085;-74
2021/08/07 05:50:15;;;;;;;6.35;3.88;;;;;;;;;;5131787;28;20051;-73
2021/08/07 05:52:42;;;;;;;7.00;4.03;;;;;;;;;;5122339;28;20046;-73
2021/08/07 05:55:08;;;;;;;6.55;3.65;;;;;;;;;;5129773;28;20016;-73
2021/08/07 05:57:34;;;;;;;4.72;2.92;;;;;;;;;;5130622;28;20019;-72
2021/08/07 05:59:59;;;;;;;4.13;3.10;;;;;;;;;;5111178;28;20031;-72
2021/08/07 06:02:25;;;;;;;5.88;3.17;;;;;;;;;;5110787;28;20023;-72
2021/08/07 06:04:51;;;;;;;4.68;3.30;;;;;;;;;;5110636;28;20107;-72
2021/08/07 06:07:17;;;;;;;5.90;2.80;;;;;;;;;;5114883;28;20490;-72
2021/08/07 06:09:43;;;;;;;6.57;2.80;;;;;;;;;;5112971;28;20384;-72
2021/08/07 06:12:08;;;;;;;4.00;2.72;;;;;;;;;;5111979;28;20104;-72
2021/08/07 06:14:34;;;;;;;4.88;2.72;;;;;;;;;;5117922;28;20062;-72
2021/08/07 06:16:59;;;;;;;4.68;2.95;;;;;;;;;;5123478;28;20015;-73
2021/08/07 06:19:24;;;;;;;5.55;2.80;;;;;;;;;;5115830;28;20035;-73
2021/08/07 06:21:50;;;;;;;4.10;2.50;;;;;;;;;;5113390;28;20015;-72
2021/08/07 06:24:16;;;;;;;4.13;2.88;;;;;;;;;;5132214;27;20498;-72
2021/08/07 06:26:43;;;;;;;4.20;2.90;;;;;;;;;;5134552;27;20054;-72
2021/08/07 06:29:09;;;;;;;4.13;2.60;;;;;;;;;;5132717;27;20030;-73
2021/08/07 06:31:34;;;;;;;3.40;2.47;;;;;;;;;;5134637;27;20031;-73
2021/08/07 06:34:00;;;;;;;3.88;2.53;;;;;;;;;;5119117;27;20076;-73
2021/08/07 06:36:26;;;;;;;4.45;2.53;;;;;;;;;;5113952;28;20062;-73
2021/08/07 06:38:51;;;;;;;5.45;2.42;;;;;;;;;;5123700;27;20494;-73
2021/08/07 06:41:17;;;;;;;3.85;2.13;;;;;;;;;;5126746;27;20023;-73
2021/08/07 06:43:42;;;;;;;3.25;2.30;;;;;;;;;;5134350;27;20102;-73
2021/08/07 06:46:08;;;;;;;3.10;2.33;;;;;;;;;;5130916;27;20020;-72
2021/08/07 06:48:35;;;;;;;3.80;2.42;;;;;;;;;;5121216;27;20047;-73
2021/08/07 06:51:00;;;;;;;5.88;2.40;;;;;;;;;;5129767;27;20068;-73
2021/08/07 06:53:26;;;;;;;6.55;2.60;;;;;;;;;;5125855;27;20030;-73
2021/08/07 06:55:51;;;;;;;4.35;2.20;;;;;;;;;;5121698;27;20027;-73
2021/08/07 06:58:17;;;;;;;5.35;2.05;;;;;;;;;;5113865;27;20494;-73
2021/08/07 07:00:42;;;;;;;4.03;2.20;;;;;;;;;;5113269;28;20475;-73
2021/08/07 07:03:08;;;;;;;3.60;2.30;;;;;;;;;;5113538;28;20371;-73
2021/08/07 07:05:34;;;;;;;3.63;2.38;;;;;;;;;;5118505;27;20023;-74
2021/08/07 07:08:00;;;;;;;3.03;2.15;;;;;;;;;;5131311;27;20026;-73
2021/08/07 07:10:26;;;;;;;4.35;2.28;;;;;;;;;;5113413;27;20023;-74
2021/08/07 07:12:51;;;;;;;4.13;2.17;;;;;;;;;;5120550;27;20027;-74
2021/08/07 07:15:17;;;;;;;3.35;2.20;;;;;;;;;;5125486;27;20024;-73
2021/08/07 07:17:43;;;;;;;5.07;2.38;;;;;;;;;;5113032;28;20106;-73
2021/08/07 07:20:10;;;;;;;4.78;2.50;;;;;;;;;;5132417;27;20026;-73
2021/08/07 07:22:36;;;;;;;2.53;2.20;;;;;;;;;;5133764;27;20060;-73
2021/08/07 07:25:02;;;;;;;3.00;2.10;;;;;;;;;;5114858;27;20079;-74
2021/08/07 07:27:27;;;;;;;5.38;2.47;;;;;;;;;;5124394;27;20026;-73
2021/08/07 07:29:53;;;;;;;3.47;2.20;;;;;;;;;;5116351;27;20027;-74
2021/08/07 07:32:18;;;;;;;3.20;2.20;;;;;;;;;;5112726;27;20051;-73
2021/08/07 07:34:44;;;;;;;4.70;2.70;;;;;;;;;;5112664;28;20053;-73
2021/08/07 07:37:09;;;;;;;2.75;2.45;;;;;;;;;;5118174;27;20019;-73
2021/08/07 07:39:35;;;;;;;3.72;2.53;;;;;;;;;;5132659;27;20051;-73
2021/08/07 07:42:01;;;;;;;3.95;2.53;;;;;;;;;;5114354;27;20378;-73
2021/08/07 07:44:26;;;;;;;3.40;2.25;;;;;;;;;;5120583;27;20098;-72
2021/08/07 07:46:52;;;;;;;5.65;2.65;;;;;;;;;;5123692;27;20035;-73
2021/08/07 07:49:17;;;;;;;5.10;2.72;;;;;;;;;;5121446;27;20517;-72
2021/08/07 07:51:43;;;;;;;4.03;2.50;;;;;;;;;;5129121;27;20027;-72
2021/08/07 07:54:08;;;;;;;3.33;2.67;;;;;;;;;;5126904;27;20035;-73
2021/08/07 07:56:34;;;;;;;5.63;2.78;;;;;;;;;;5112350;27;20533;-74
2021/08/07 07:59:00;;;;;;;3.22;2.70;;;;;;;;;;5112170;28;20073;-74
2021/08/07 08:01:26;;;;;;;5.82;2.85;;;;;;;;;;5122770;27;20023;-71
2021/08/07 08:03:52;;;;;;;4.57;2.60;;;;;;;;;;5112250;28;20510;-71
2021/08/07 08:06:17;;;;;;;4.25;2.95;;;;;;;;;;5112302;27;20102;-71
2021/08/07 08:08:43;;;;;;;4.32;3.10;;;;;;;;;;5112096;28;20015;-72
2021/08/07 08:11:08;;;;;;;6.10;3.10;;;;;;;;;;5116361;27;20028;-74
2021/08/07 08:13:34;;;;;;;4.40;3.20;;;;;;;;;;5114075;27;20027;-73
2021/08/07 08:15:59;;;;;;;3.38;2.72;;;;;;;;;;5126548;27;20379;-73
2021/08/07 08:18:25;;;;;;;5.03;3.05;;;;;;;;;;5128348;27;20483;-72
2021/08/07 08:20:50;;;;;;;3.83;2.70;;;;;;;;;;5112895;28;20027;-72
2021/08/07 08:23:16;;;;;;;4.47;2.78;;;;;;;;;;5118085;27;20028;-72
2021/08/07 08:25:42;;;;;;;4.32;3.13;;;;;;;;;;5112924;27;20028;-72
2021/08/07 08:28:07;;;;;;;4.20;2.58;;;;;;;;;;5112953;28;20031;-72
2021/08/07 08:30:34;;;;;;;4.45;2.90;;;;;;;;;;5125997;27;20434;-70
2021/08/07 08:32:59;;;;;;;3.95;2.65;;;;;;;;;;5126713;27;20761;-73
2021/08/07 08:35:25;;;;;;;4.38;2.90;;;;;;;;;;5112669;28;20028;-72
2021/08/07 08:37:50;;;;;;;4.22;2.83;;;;;;;;;;5112662;28;20019;-71
2021/08/07 08:40:16;;;;;;;3.72;2.83;;;;;;;;;;5112754;28;20036;-71
2021/08/07 08:42:42;;;;;;;3.67;2.90;;;;;;;;;;5114938;27;20020;-70
2021/08/07 08:45:09;;;;;;;2.58;2.38;;;;;;;;;;5132367;27;20065;-73
2021/08/07 08:47:39;;;;;;;3.00;2.70;;;;;;;;;;5117472;27;20080;-72
2021/08/07 08:50:05;;;;;;;3.67;3.28;;;;;;;;;;5113331;27;20044;-71
2021/08/07 08:52:31;;;;;;;4.97;2.88;;;;;;;;;;5112564;28;20107;-70
2021/08/07 08:54:59;;;;;;;6.88;2.55;;;;;;;;;;5112359;28;20107;-71
2021/08/07 08:57:24;;;;;;;4.03;3.13;;;;;;;;;;5112208;28;20024;-70
2021/08/07 08:59:50;;;;;;;3.65;2.95;;;;;;;;;;5125658;27;20034;-71
2021/08/07 09:02:16;;;;;;;3.55;3.00;;;;;;;;;;5132550;27;20350;-71
2021/08/07 09:04:42;;;;;;;3.78;2.75;;;;;;;;;;5132744;27;20062;-71
2021/08/07 09:07:08;;;;;;;5.47;3.45;;;;;;;;;;5132836;27;20379;-70
2021/08/07 09:09:38;;;;;;;5.20;2.90;;;;;;;;;;5113772;28;20066;-71
2021/08/07 09:12:05;;;;;;;3.78;2.72;;;;;;;;;;5130984;28;20031;-71
2021/08/07 09:14:35;;;;;;;4.57;3.22;;;;;;;;;;5112746;28;20493;-70
2021/08/07 09:17:04;;;;;;;5.53;2.97;;;;;;;;;;5128259;28;20023;-70
2021/08/07 09:19:50;;;;;;;3.47;2.90;;;;;;;;;;5131911;28;20038;-71
2021/08/07 09:22:20;;;;;;;4.25;2.50;;;;;;;;;;5130141;28;20015;-71
2021/08/07 09:24:56;;;;;;;3.25;2.85;;;;;;;;;;5111246;28;20016;-71
2021/08/07 09:27:30;;;;;;;3.92;2.60;;;;;;;;;;5111367;28;20113;-72
2021/08/07 09:29:57;;;;;;;4.22;2.50;;;;;;;;;;5111665;28;20356;-72
2021/08/07 09:32:22;;;;;;;4.28;2.50;;;;;;;;;;5123856;28;20023;-72
2021/08/07 09:35:24;;;;;;;4.07;2.88;;;;;;;;;;5132285;28;20019;-70
2021/08/07 09:38:12;;;;;;;6.32;3.17;;;;;;;;;;5102713;28;20506;-71
2021/08/07 09:40:45;;;;;;;4.75;2.40;;;;;;;;;;5131419;28;20027;-72
2021/08/07 09:43:13;;;;;;;3.08;2.40;;;;;;;;;;5132384;28;20023;-70
2021/08/07 09:45:39;;;;;;;4.28;2.00;;;;;;;;;;5132135;28;20031;-71
2021/08/07 09:48:08;;;;;;;2.97;1.85;;;;;;;;;;5113890;28;20411;-72
2021/08/07 09:50:35;;;;;;;3.70;2.22;;;;;;;;;;5127558;28;20040;-72
2021/08/07 09:53:03;;;;;;;2.95;2.03;;;;;;;;;;5130713;28;20034;-70
2021/08/07 09:55:29;;;;;;;3.70;1.90;;;;;;;;;;5131844;27;20031;-71
2021/08/07 09:58:03;;;;;;;3.35;1.83;;;;;;;;;;5135002;27;20034;-71
2021/08/07 10:00:41;;;;;;;2.97;2.00;;;;;;;;;;5135222;27;20019;-71
2021/08/07 10:03:34;;;;;;;3.13;1.75;;;;;;;;;;5135110;27;20019;-72
2021/08/07 10:06:21;;;;;;;2.55;2.08;;;;;;;;;;5131123;27;20035;-72
2021/08/07 10:08:50;;;;;;;3.67;2.10;;;;;;;;;;5134676;27;20034;-72
2021/08/07 10:11:19;;;;;;;2.22;1.75;;;;;;;;;;5135164;27;20035;-73
2021/08/07 10:13:45;;;;;;;3.90;2.08;;;;;;;;;;5120301;27;20016;-71
2021/08/07 10:16:13;;;;;;;2.88;2.05;;;;;;;;;;5114428;28;20088;-72
2021/08/07 10:18:41;;;;;;;2.58;2.38;;;;;;;;;;5119678;27;20023;-71
2021/08/07 10:21:07;;;;;;;3.05;2.30;;;;;;;;;;5134582;27;20549;-73
2021/08/07 10:23:33;;;;;;;3.65;2.50;;;;;;;;;;5134851;27;20113;-73
2021/08/07 10:25:59;;;;;;;6.30;2.30;;;;;;;;;;5134320;27;20082;-72
2021/08/07 10:28:28;;;;;;;3.30;1.90;;;;;;;;;;5144884;27;20025;-72
2021/08/07 10:30:55;;;;;;;3.78;2.00;;;;;;;;;;5136798;27;20030;-72
2021/08/07 10:33:24;;;;;;;4.97;2.00;;;;;;;;;;5147592;27;20110;-72
2021/08/07 10:35:52;;;;;;;2.65;1.60;;;;;;;;;;5154694;27;20461;-72
2021/08/07 10:38:18;;;;;;;3.92;1.80;;;;;;;;;;5133082;27;20026;-72
2021/08/07 10:40:43;;;;;;;3.60;1.60;;;;;;;;;;5134247;27;20129;-73
2021/08/07 10:43:11;;;;;;;2.70;1.25;;;;;;;;;;5133416;27;20019;-71
2021/08/07 10:45:40;;;;;;;2.55;1.40;;;;;;;;;;5134244;27;20030;-72
2021/08/07 10:48:06;;;;;;;2.97;1.40;;;;;;;;;;5128930;27;20031;-73
2021/08/07 10:50:35;;;;;;;3.38;1.20;;;;;;;;;;5134308;27;20039;-73
2021/08/07 10:53:18;;;;;;;3.72;1.35;;;;;;;;;;5133332;27;20015;-72
2021/08/07 10:55:44;;;;;;;3.90;1.40;;;;;;;;;;5128849;27;20075;-73
2021/08/07 10:58:45;;;;;;;5.40;1.10;;;;;;;;;;5135287;27;20027;-72
2021/08/07 11:01:23;;;;;;;2.90;1.13;;;;;;;;;;5119147;27;20027;-72
2021/08/07 11:04:11;;;;;;;5.82;1.35;;;;;;;;;;5138975;27;20035;-72
2021/08/07 11:06:43;;;;;;;4.47;1.55;;;;;;;;;;5139959;27;20023;-72
2021/08/07 11:09:17;;;;;;;4.18;1.50;;;;;;;;;;5129294;27;20041;-72
2021/08/07 11:11:43;;;;;;;2.60;1.30;;;;;;;;;;5134802;27;20425;-73
2021/08/07 11:14:21;;;;;;;4.10;1.60;;;;;;;;;;5134410;27;20031;-72
2021/08/07 11:17:05;;;;;;;4.13;1.67;;;;;;;;;;5114024;28;20031;-72
2021/08/07 11:20:06;;;;;;;6.32;1.70;;;;;;;;;;5131560;27;20045;-72
2021/08/07 11:22:31;;;;;;;3.15;1.40;;;;;;;;;;5131415;27;20045;-73
2021/08/07 11:24:59;;;;;;;2.88;1.40;;;;;;;;;;5134486;27;20031;-71
2021/08/07 11:30:42;;;;;;;7.10;1.63;;;;;;;;;;5114266;27;20019;-71
2021/08/07 11:33:08;;;;;;;4.63;1.40;;;;;;;;;;5154099;27;20391;-72
2021/08/07 11:35:38;;;;;;;1.83;1.23;;;;;;;;;;5130866;27;20086;-72
2021/08/07 11:38:10;;;;;;;2.20;1.25;;;;;;;;;;5133580;27;20098;-72
2021/08/07 11:40:57;;;;;;;3.75;1.38;;;;;;;;;;5125128;27;20024;-72
2021/08/07 11:43:26;;;;;;;2.80;1.17;;;;;;;;;;5132939;27;20023;-72
2021/08/07 11:45:54;;;;;;;1.60;1.08;;;;;;;;;;5132064;27;20035;-72
2021/08/07 11:48:24;;;;;;;4.32;1.23;;;;;;;;;;5129972;27;20095;-72
2021/08/07 11:50:50;;;;;;;3.95;1.30;;;;;;;;;;5132687;27;20432;-72
2021/08/07 11:53:19;;;;;;;6.18;1.40;;;;;;;;;;5126950;27;20058;-73
2021/08/07 11:55:44;;;;;;;2.17;1.13;;;;;;;;;;5132712;27;20019;-72
2021/08/07 11:58:11;;;;;;;3.70;1.20;;;;;;;;;;5132754;27;20049;-73
2021/08/07 12:00:39;;;;;;;2.90;1.17;;;;;;;;;;5132368;27;20066;-73
2021/08/07 12:03:10;;;;;;;3.50;1.20;;;;;;;;;;5127584;27;20050;-73
2021/08/07 12:05:38;;;;;;;3.33;1.63;;;;;;;;;;5126443;27;20070;-73
2021/08/07 12:08:09;;;;;;;2.85;1.30;;;;;;;;;;5132468;27;20475;-73
2021/08/07 12:10:36;;;;;;;3.20;1.30;;;;;;;;;;5133053;27;20346;-73
2021/08/07 12:13:02;;;;;;;5.57;1.33;;;;;;;;;;5129202;27;20071;-72
2021/08/07 12:15:28;;;;;;;2.40;1.30;;;;;;;;;;5132215;27;20035;-73
2021/08/07 12:17:55;;;;;;;2.72;1.20;;;;;;;;;;5132377;27;20494;-72
2021/08/07 12:20:21;;;;;;;4.50;1.20;;;;;;;;;;5132597;27;20027;-72
2021/08/07 12:22:57;;;;;;;2.22;1.30;;;;;;;;;;5132000;27;20080;-72
2021/08/07 12:25:23;;;;;;;3.35;1.17;;;;;;;;;;5132478;27;20416;-73
2021/08/07 12:28:02;;;;;;;2.53;1.40;;;;;;;;;;5131621;27;20035;-72
2021/08/07 12:30:27;;;;;;;3.28;1.40;;;;;;;;;;5130930;27;20070;-72
2021/08/07 12:33:16;;;;;;;6.22;1.60;;;;;;;;;;5139952;27;20073;-72
2021/08/07 12:35:41;;;;;;;2.00;1.30;;;;;;;;;;5131555;27;20114;-72
2021/08/07 12:38:13;;;;;;;3.72;1.20;;;;;;;;;;5132158;27;20137;-73
2021/08/07 12:40:39;;;;;;;3.15;1.50;;;;;;;;;;5132059;27;20035;-72
2021/08/07 12:43:04;;;;;;;5.38;1.40;;;;;;;;;;5111467;28;20033;-72
2021/08/07 12:45:30;;;;;;;3.17;1.40;;;;;;;;;;5121317;27;20062;-72
2021/08/07 12:47:55;;;;;;;6.07;1.30;;;;;;;;;;5130824;27;20027;-72
2021/08/07 12:50:21;;;;;;;2.00;1.20;;;;;;;;;;5131013;27;20101;-73
2021/08/07 12:52:51;;;;;;;1.38;0.80;;;;;;;;;;5125118;27;20437;-72
2021/08/07 12:55:20;;;;;;;3.65;1.27;;;;;;;;;;5125615;27;20027;-71
2021/08/07 12:57:47;;;;;;;6.60;1.10;;;;;;;;;;5132826;27;20023;-72
2021/08/07 13:00:13;;;;;;;1.95;1.00;;;;;;;;;;5127837;27;20027;-71
2021/08/07 13:02:39;;;;;;;3.17;1.10;;;;;;;;;;5130619;27;20051;-72
2021/08/07 13:05:06;;;;;;;3.83;1.40;;;;;;;;;;5131818;27;20053;-71
2021/08/07 13:07:33;;;;;;;2.28;1.00;;;;;;;;;;5132008;27;20109;-73
2021/08/07 13:10:21;;;;;;;2.08;1.08;;;;;;;;;;5132440;28;20506;-71
2021/08/07 13:12:51;;;;;;;2.78;1.00;;;;;;;;;;5126011;28;20032;-71
2021/08/07 13:15:17;;;;;;;2.63;0.98;;;;;;;;;;5128231;28;20031;-71
2021/08/07 13:18:01;;;;;;;2.20;1.02;;;;;;;;;;5128578;27;20037;-74
2021/08/07 13:20:40;;;;;;;2.15;0.88;;;;;;;;;;5129108;28;20034;-72
2021/08/07 13:23:07;;;;;;;2.88;1.02;;;;;;;;;;5136658;27;20027;-73
2021/08/07 13:25:32;;;;;;;1.73;0.90;;;;;;;;;;5124463;27;20076;-72
2021/08/07 13:28:18;;;;;;;1.95;1.00;;;;;;;;;;5130331;27;20027;-73
2021/08/07 13:30:52;;;;;;;2.05;1.00;;;;;;;;;;5128451;27;20043;-73
2021/08/07 13:33:33;;;;;;;2.85;0.90;;;;;;;;;;5123888;27;20030;-72
2021/08/07 13:36:00;;;;;;;1.92;1.10;;;;;;;;;;5125239;27;20019;-73
2021/08/07 13:38:27;;;;;;;2.15;1.00;;;;;;;;;;5127756;27;20027;-73
2021/08/07 13:41:11;;;;;;;4.28;1.67;;;;;;;;;;5112493;27;20027;-72
2021/08/07 13:43:38;;;;;;;3.58;0.90;;;;;;;;;;5127492;27;20269;-72
2021/08/07 13:46:04;;;;;;;1.58;0.90;;;;;;;;;;5132581;27;20031;-72
2021/08/07 13:48:30;;;;;;;2.80;0.95;;;;;;;;;;5129274;27;20046;-72
2021/08/07 13:50:55;;;;;;;2.58;1.05;;;;;;;;;;5137427;27;20575;-73
2021/08/07 13:53:21;;;;;;;2.53;0.85;;;;;;;;;;5128481;27;20027;-72
2021/08/07 13:55:47;;;;;;;1.98;0.93;;;;;;;;;;5133484;27;20043;-72
2021/08/07 13:58:14;;;;;;;3.20;1.00;;;;;;;;;;5122999;27;20041;-73
2021/08/07 14:00:41;;;;;;;3.65;1.20;;;;;;;;;;5119038;27;20027;-71
2021/08/07 14:03:06;;;;;;;2.17;0.90;;;;;;;;;;5126316;27;20573;-72
2021/08/07 14:05:31;;;;;;;2.42;1.13;;;;;;;;;;5128288;27;20164;-72
2021/08/07 14:07:57;;;;;;;1.85;1.00;;;;;;;;;;5133000;27;20030;-72
2021/08/07 14:10:23;;;;;;;2.80;1.13;;;;;;;;;;5134890;27;20030;-73
2021/08/07 14:12:48;;;;;;;3.22;1.10;;;;;;;;;;5134213;27;20027;-73
2021/08/07 14:15:13;;;;;;;3.90;1.35;;;;;;;;;;5135230;27;20038;-73
2021/08/07 14:17:39;;;;;;;2.38;1.00;;;;;;;;;;5133761;27;20030;-73
2021/08/07 14:20:05;;;;;;;2.42;1.35;;;;;;;;;;5109737;28;20034;-73
2021/08/07 14:22:30;;;;;;;3.47;1.30;;;;;;;;;;5114430;28;20585;-72
2021/08/07 14:24:56;;;;;;;3.30;1.17;;;;;;;;;;5132508;27;20117;-72
2021/08/07 14:27:22;;;;;;;2.63;1.40;;;;;;;;;;5132989;27;20026;-72
2021/08/07 14:29:47;;;;;;;3.15;1.40;;;;;;;;;;5134789;27;20031;-72
2021/08/07 14:32:12;;;;;;;2.30;1.10;;;;;;;;;;5133817;27;20073;-72
2021/08/07 14:34:38;;;;;;;2.20;1.20;;;;;;;;;;5133843;27;20098;-75
2021/08/07 14:37:04;;;;;;;2.75;1.20;;;;;;;;;;5134347;27;20019;-72
2021/08/07 14:39:29;;;;;;;3.15;1.60;;;;;;;;;;5131195;27;20023;-72
2021/08/07 14:41:55;;;;;;;5.05;1.65;;;;;;;;;;5134237;27;20467;-73
2021/08/07 14:44:20;;;;;;;3.58;1.20;;;;;;;;;;5134200;27;20019;-73
2021/08/07 14:46:46;;;;;;;4.40;1.35;;;;;;;;;;5133635;27;20071;-73
2021/08/07 14:49:11;;;;;;;4.15;1.35;;;;;;;;;;5115495;27;20043;-73
2021/08/07 14:51:37;;;;;;;4.30;1.23;;;;;;;;;;5132627;27;20076;-73